createdAt,value
2022-11-02T00:04:50.236Z,1.2
2022-11-02T00:10:33.497Z,1.7
2022-11-02T00:16:18.419Z,1.2
2022-11-02T00:22:01.729Z,1.2
2022-11-02T00:27:45.098Z,1.6
2022-11-02T00:33:28.550Z,1.2
2022-11-02T00:39:11.929Z,1.7
2022-11-02T00:44:55.076Z,1.1
2022-11-02T00:50:39.257Z,1.4
2022-11-02T00:56:22.404Z,1.1
2022-11-02T01:02:06.124Z,1.3
2022-11-02T01:07:49.829Z,1.2
2022-11-02T01:13:33.096Z,1.1
2022-11-02T01:19:17.314Z,1.1
2022-11-02T01:25:00.368Z,1.1
2022-11-02T01:30:43.615Z,1.3
2022-11-02T01:36:26.779Z,1.1
2022-11-02T01:42:22.114Z,1.3
2022-11-02T01:48:06.322Z,1
2022-11-02T01:53:51.160Z,1.3
2022-11-02T01:59:37.548Z,1.2
2022-11-02T02:05:22.594Z,1.1
2022-11-02T02:11:16.746Z,0.9
2022-11-02T02:17:08.317Z,1.1
2022-11-02T02:23:06.969Z,1
2022-11-02T02:28:52.780Z,1.2
2022-11-02T02:34:39.729Z,1.1
2022-11-02T02:40:24.871Z,1.1
2022-11-02T02:46:10.267Z,1
2022-11-02T02:51:54.809Z,1.2
2022-11-02T02:57:38.693Z,1.1
2022-11-02T03:03:32.232Z,1.3
2022-11-02T03:09:23.711Z,1.2
2022-11-02T03:15:10.712Z,1
2022-11-02T03:20:59.377Z,1.1
2022-11-02T03:26:47.698Z,1.4
2022-11-02T03:32:37.064Z,1.3
2022-11-02T03:38:23.380Z,1.1
2022-11-02T03:44:08.437Z,1.2
2022-11-02T03:49:52.107Z,1.4
2022-11-02T03:55:39.149Z,1.2
2022-11-02T04:01:22.982Z,1.3
2022-11-02T04:07:06.484Z,1.3
2022-11-02T04:12:49.596Z,1.4
2022-11-02T04:18:32.928Z,1.3
2022-11-02T04:24:16.161Z,1.4
2022-11-02T04:29:59.105Z,1.7
2022-11-02T04:35:42.471Z,1.2
2022-11-02T04:41:26.349Z,1.3
2022-11-02T04:47:10.645Z,1.5
2022-11-02T04:53:00.824Z,1.6
2022-11-02T04:58:43.975Z,1.4
2022-11-02T05:04:27.468Z,1.5
2022-11-02T05:10:11.513Z,1.3
2022-11-02T05:15:56.722Z,1.2
2022-11-02T05:21:40.049Z,1.6
2022-11-02T05:27:23.270Z,1.7
2022-11-02T05:33:07.451Z,1.3
2022-11-02T05:38:53.627Z,1.6
2022-11-02T05:44:36.946Z,1.5
2022-11-02T05:50:20.222Z,2.1
2022-11-02T05:56:03.841Z,1.3
2022-11-02T06:01:47.289Z,1.7
2022-11-02T06:07:31.011Z,1.5
2022-11-02T06:13:14.093Z,1.5
2022-11-02T06:18:57.393Z,1.7
2022-11-02T06:24:42.613Z,1.5
2022-11-02T06:30:25.893Z,1.4
2022-11-02T06:36:09.897Z,1.5
2022-11-02T06:41:53.173Z,1.7
2022-11-02T06:47:37.108Z,1.6
2022-11-02T06:53:20.370Z,1.5
2022-11-02T06:59:03.917Z,1.4
2022-11-02T07:04:47.205Z,1.8
2022-11-02T07:10:31.137Z,1.9
2022-11-02T07:16:14.572Z,1.4
2022-11-02T07:21:57.852Z,1.8
2022-11-02T07:27:43.618Z,1.6
2022-11-02T07:33:26.882Z,1.5
2022-11-02T07:39:11.080Z,1.8
2022-11-02T07:44:55.216Z,2
2022-11-02T07:50:38.526Z,1.7
2022-11-02T07:56:21.693Z,1.9
2022-11-02T08:02:05.068Z,1.6
2022-11-02T08:07:48.389Z,1.8
2022-11-02T08:13:34.727Z,1.6
2022-11-02T08:19:17.933Z,1.8
2022-11-02T08:25:01.197Z,1.9
2022-11-02T08:30:44.563Z,1.8
2022-11-02T08:36:27.832Z,1.8
2022-11-02T08:42:11.152Z,1.6
2022-11-02T08:47:54.505Z,1.8
2022-11-02T08:53:38.054Z,1.8
2022-11-02T08:59:21.220Z,2.1
2022-11-02T09:05:05.772Z,1.9
2022-11-02T09:10:50.163Z,1.8
2022-11-02T09:16:42.009Z,1.7
2022-11-02T09:22:25.091Z,1.7
2022-11-02T09:28:09.114Z,2.1
2022-11-02T09:33:55.312Z,1.8
2022-11-02T09:39:38.480Z,1.9
2022-11-02T09:45:22.469Z,1.7
2022-11-02T09:51:08.408Z,1.9
2022-11-02T09:56:52.957Z,1.7
2022-11-02T10:02:41.778Z,1.6
2022-11-02T10:08:35.921Z,1.8
2022-11-02T10:14:22.314Z,1.8
2022-11-02T10:20:09.136Z,2.1
2022-11-02T10:25:53.463Z,1.8
2022-11-02T10:31:36.951Z,1.7
2022-11-02T10:37:30.084Z,1.8
2022-11-02T10:43:20.548Z,1.9
2022-11-02T10:49:07.188Z,2
2022-11-02T10:54:51.083Z,1.8
2022-11-02T11:00:37.620Z,1.6
2022-11-02T11:06:21.438Z,1.4
2022-11-02T11:12:07.012Z,1.5
2022-11-02T11:23:59.985Z,1.7
2022-11-02T11:29:47.400Z,1.8
2022-11-02T11:35:33.230Z,1.6
2022-11-02T11:41:16.907Z,1.8
2022-11-02T11:47:00.796Z,1.9
2022-11-02T11:52:44.300Z,1.7
2022-11-02T11:58:28.325Z,1.5
2022-11-02T12:04:23.562Z,1.5
2022-11-02T12:10:22.512Z,1.4
2022-11-02T12:16:23.890Z,1.4
2022-11-02T12:22:17.290Z,1.5
2022-11-02T12:28:08.243Z,1.6
2022-11-02T12:34:07.338Z,1.3
2022-11-02T12:40:19.899Z,1.4
2022-11-02T12:46:13.133Z,1.3
2022-11-02T12:52:08.181Z,1.5
2022-11-02T12:58:02.905Z,1.3
2022-11-02T13:04:00.332Z,1.5
2022-11-02T13:09:55.064Z,1.4
2022-11-02T13:15:42.364Z,1.5
2022-11-02T13:21:32.716Z,1.3
2022-11-02T13:27:40.265Z,1.5
2022-11-02T13:33:37.116Z,1.4
2022-11-02T13:39:33.619Z,1.5
2022-11-02T13:45:38.531Z,1.2
2022-11-02T13:51:34.071Z,1.4
2022-11-02T13:57:31.060Z,1.3
2022-11-02T14:03:41.028Z,1.4
2022-11-02T14:09:36.552Z,1.2
2022-11-02T14:15:49.487Z,1
2022-11-02T14:21:47.574Z,1.1
2022-11-02T14:27:38.883Z,1.3
2022-11-02T14:33:31.413Z,1.1
2022-11-02T14:39:29.207Z,1.1
2022-11-02T14:45:45.601Z,1.3
2022-11-02T14:51:40.969Z,1.4
2022-11-02T14:57:31.758Z,1.3
2022-11-02T15:03:35.451Z,1.3
2022-11-02T15:09:35.834Z,1
2022-11-02T15:15:33.617Z,1.2
2022-11-02T15:21:39.199Z,1.3
2022-11-02T15:27:31.805Z,1.3
2022-11-02T15:33:29.222Z,1.4
2022-11-02T15:39:20.219Z,1.2
2022-11-02T15:45:47.687Z,1.4
2022-11-02T15:51:36.277Z,1.8
2022-11-02T15:57:41.775Z,1.4
2022-11-02T16:03:35.565Z,1.6
2022-11-02T16:09:39.240Z,1.4
2022-11-02T16:15:24.980Z,1.5
2022-11-02T16:21:14.612Z,1.6
2022-11-02T16:27:06.296Z,1.4
2022-11-02T16:33:01.169Z,1.5
2022-11-02T16:39:03.411Z,1.8
2022-11-02T16:44:52.635Z,2.1
2022-11-02T16:50:42.532Z,1.8
2022-11-02T16:56:35.136Z,2.1
2022-11-02T17:02:27.699Z,2.2
2022-11-02T17:08:19.691Z,2
2022-11-02T17:14:11.856Z,2.2
2022-11-02T17:20:04.339Z,2.1
2022-11-02T17:25:52.760Z,1.9
2022-11-02T17:31:46.971Z,1.9
2022-11-02T17:37:38.026Z,2.1
2022-11-02T17:43:27.781Z,2.2
2022-11-02T17:49:16.602Z,2.1
2022-11-02T17:55:01.362Z,2.1
2022-11-02T18:00:46.627Z,2.3
2022-11-02T18:06:37.486Z,1.8
2022-11-02T18:12:35.604Z,2
2022-11-02T18:18:26.653Z,2
2022-11-02T18:24:16.448Z,1.9
2022-11-02T18:30:04.591Z,2.3
2022-11-02T18:35:51.938Z,2.4
2022-11-02T18:41:35.947Z,2.2
2022-11-02T18:47:24.515Z,1.9
2022-11-02T18:53:15.800Z,2.1
2022-11-02T18:58:59.496Z,2.1
2022-11-02T19:04:52.032Z,2.1
2022-11-02T19:10:47.707Z,1.7
2022-11-02T19:16:35.461Z,1.9
2022-11-02T19:22:32.331Z,2.2
2022-11-02T19:28:21.389Z,1.8
2022-11-02T19:34:10.334Z,2.1
2022-11-02T19:40:00.004Z,1.7
2022-11-02T19:45:49.588Z,1.9
2022-11-02T19:51:37.959Z,2.1
2022-11-02T19:57:34.827Z,2.2
2022-11-02T20:03:24.832Z,2
2022-11-02T20:09:17.673Z,2.4
2022-11-02T20:15:13.814Z,1.8
2022-11-02T20:21:15.175Z,2.1
2022-11-02T20:27:00.140Z,1.9
2022-11-02T20:32:49.992Z,1.9
2022-11-02T20:38:35.987Z,1.8
2022-11-02T20:44:34.226Z,1.7
2022-11-02T20:50:27.264Z,1.9
2022-11-02T20:56:13.494Z,2.1
2022-11-02T21:02:03.827Z,2.4
2022-11-02T21:07:49.887Z,1.9
2022-11-02T21:13:43.954Z,1.9
2022-11-02T21:19:28.332Z,2
2022-11-02T21:25:18.016Z,2.4
2022-11-02T21:31:07.354Z,2.3
2022-11-02T21:36:53.172Z,2.1
2022-11-02T21:42:45.795Z,2.1
2022-11-02T21:48:37.168Z,2.3
2022-11-02T21:54:20.584Z,2.2
2022-11-02T22:00:14.128Z,2.5
2022-11-02T22:06:00.177Z,2.3
2022-11-02T22:11:45.683Z,2.2
2022-11-02T22:17:49.416Z,2.2
2022-11-02T22:23:36.032Z,2.7
2022-11-02T22:29:21.327Z,2
2022-11-02T22:35:05.786Z,2.3
2022-11-02T22:41:05.071Z,2.3
2022-11-02T22:46:50.658Z,2.4
2022-11-02T22:52:43.714Z,2.1
2022-11-02T22:58:34.082Z,2.2
2022-11-02T23:04:37.357Z,2.4
2022-11-02T23:10:22.578Z,2.6
2022-11-02T23:16:10.332Z,2.4
2022-11-02T23:22:00.274Z,2.4
2022-11-02T23:27:54.539Z,2.4
2022-11-02T23:33:43.189Z,2.4
2022-11-02T23:39:37.386Z,2.4
2022-11-02T23:45:28.499Z,2.4
2022-11-02T23:51:18.302Z,2.2
2022-11-02T23:57:07.923Z,2.2
